Time;durP1;ratioP1;P1;durP2;ratioP2;P2;SDS_P1;SDS_P2;PMS_P1;PMS_P2;Temp;Humidity;BMP_temperature;BMP_pressure;BME280_temperature;BME280_humidity;BME280_pressure;Samples;Min_cycle;Max_cycle;Signal;HPM_P1;HPM_P2
2021/09/17 00:00:38;;;;;;;8.48;4.13;;;;;;;15.88;72.90;99986.16;1088246;54;20034;-82
2021/09/17 00:01:41;;;;;;;9.57;3.95;;;;;;;15.90;73.17;99978.72;1089675;46;20022;-82
2021/09/17 00:02:45;;;;;;;6.43;3.97;;;;;;;15.83;73.08;99975.06;1088301;54;20022;-81
2021/09/17 00:03:47;;;;;;;6.07;3.97;;;;;;;15.74;73.30;99974.28;1088050;54;20038;-81
2021/09/17 00:04:52;;;;;;;6.05;3.63;;;;;;;15.83;73.05;99978.56;1088113;54;20018;-80
2021/09/17 00:05:54;;;;;;;7.85;3.83;;;;;;;15.83;73.14;99977.75;1088092;54;20030;-80
2021/09/17 00:06:59;;;;;;;6.13;3.78;;;;;;;15.84;73.13;99979.47;1088012;54;20034;-83
2021/09/17 00:08:03;;;;;;;6.90;3.42;;;;;;;15.91;72.67;99972.31;1087998;54;20046;-81
2021/09/17 00:09:07;;;;;;;5.03;3.20;;;;;;;15.96;72.87;99966.38;1088181;54;20102;-82
2021/09/17 00:10:09;;;;;;;4.85;3.10;;;;;;;16.01;72.36;99978.31;1088214;54;20041;-82
2021/09/17 00:11:14;;;;;;;5.35;3.35;;;;;;;15.93;72.50;99967.59;1088293;54;20097;-81
2021/09/17 00:12:16;;;;;;;8.70;4.82;;;;;;;15.68;73.42;99966.91;1089191;39;20876;-83
2021/09/17 00:13:22;;;;;;;6.03;3.72;;;;;;;15.58;73.86;99965.31;1088014;54;20014;-82
2021/09/17 00:14:23;;;;;;;8.43;4.45;;;;;;;15.55;73.92;99970.22;1088601;54;20019;-84
2021/09/17 00:15:27;;;;;;;5.63;3.50;;;;;;;15.60;73.53;99962.41;1088259;54;20686;-81
2021/09/17 00:16:29;;;;;;;6.55;4.05;;;;;;;15.61;73.56;99969.50;1088048;54;20037;-81
2021/09/17 00:17:34;;;;;;;5.05;3.13;;;;;;;15.69;73.16;99963.22;1088013;54;20034;-82
2021/09/17 00:18:36;;;;;;;5.43;3.28;;;;;;;15.84;72.77;99966.00;1090137;39;20614;-81
2021/09/17 00:19:43;;;;;;;5.03;2.83;;;;;;;15.92;72.51;99962.41;1087910;54;20037;-82
2021/09/17 00:20:44;;;;;;;5.63;2.92;;;;;;;15.98;72.34;99959.78;1087985;54;20034;-80
2021/09/17 00:21:49;;;;;;;4.50;3.30;;;;;;;15.92;72.71;99954.31;1088008;54;20033;-82
2021/09/17 00:22:50;;;;;;;5.35;3.13;;;;;;;15.99;72.45;99960.66;1088387;46;20022;-81
2021/09/17 00:23:57;;;;;;;4.93;2.95;;;;;;;16.01;72.02;99959.44;1088251;54;20034;-81
2021/09/17 00:24:59;;;;;;;4.68;2.97;;;;;;;16.05;71.77;99954.50;1088154;54;20042;-82
2021/09/17 00:26:03;;;;;;;6.00;3.50;;;;;;;15.83;72.61;99954.31;1088337;54;20025;-82
2021/09/17 00:27:05;;;;;;;7.63;3.63;;;;;;;15.83;72.53;99958.88;1088259;54;20023;-83
2021/09/17 00:28:09;;;;;;;4.70;3.22;;;;;;;15.98;72.18;99956.28;1088015;54;20046;-81
2021/09/17 00:29:11;;;;;;;4.65;3.33;;;;;;;16.05;71.90;99955.38;1087960;54;20023;-81
2021/09/17 00:30:15;;;;;;;4.88;3.10;;;;;;;16.06;71.75;99958.88;1087929;54;20030;-83
2021/09/17 00:31:17;;;;;;;4.68;3.30;;;;;;;16.05;71.95;99949.97;1088206;54;20051;-82
2021/09/17 00:32:21;;;;;;;4.88;3.22;;;;;;;16.10;72.01;99962.06;1088189;54;20018;-82
2021/09/17 00:33:26;;;;;;;4.85;2.85;;;;;;;16.14;71.58;99952.59;1087994;54;20034;-82
2021/09/17 00:34:27;;;;;;;6.03;3.40;;;;;;;16.10;71.70;99951.25;1088196;54;20041;-82
2021/09/17 00:35:32;;;;;;;7.18;3.58;;;;;;;16.03;71.87;99946.63;1088235;54;20038;-82
2021/09/17 00:36:33;;;;;;;7.07;3.78;;;;;;;15.82;72.45;99949.13;1088165;54;20023;-82
2021/09/17 00:37:37;;;;;;;7.22;4.50;;;;;;;15.71;72.82;99953.09;1088179;54;20035;-80
2021/09/17 00:38:42;;;;;;;6.40;3.90;;;;;;;15.78;72.93;99953.19;1087879;54;20034;-81
2021/09/17 00:39:47;;;;;;;5.35;3.38;;;;;;;15.91;72.40;99956.16;1088062;54;20038;-81
2021/09/17 00:40:51;;;;;;;5.78;3.28;;;;;;;15.87;72.29;99941.38;1087932;54;20030;-82
2021/09/17 00:41:53;;;;;;;4.88;3.20;;;;;;;15.95;72.06;99948.53;1087979;54;20808;-83
2021/09/17 00:42:58;;;;;;;7.55;3.60;;;;;;;15.87;72.37;99942.19;1088042;54;20034;-81
2021/09/17 00:44:00;;;;;;;9.38;3.55;;;;;;;15.88;72.47;99946.56;1087753;54;20034;-81
2021/09/17 00:45:06;;;;;;;5.10;3.20;;;;;;;15.92;72.50;99944.34;1087858;54;20014;-81
2021/09/17 00:46:10;;;;;;;6.75;3.47;;;;;;;15.94;72.17;99942.31;1087939;54;20023;-81
2021/09/17 00:47:11;;;;;;;4.80;3.30;;;;;;;15.98;72.25;99942.78;1088040;54;20034;-83
2021/09/17 00:48:15;;;;;;;5.13;3.10;;;;;;;16.00;72.33;99946.97;1088056;54;20030;-82
2021/09/17 00:49:18;;;;;;;5.50;3.35;;;;;;;15.96;72.15;99944.81;1088142;54;20059;-80
2021/09/17 00:50:24;;;;;;;5.72;3.80;;;;;;;15.90;72.47;99943.69;1088066;54;20042;-82
2021/09/17 00:51:26;;;;;;;6.45;4.13;;;;;;;15.83;72.78;99950.81;1088338;54;20030;-83
2021/09/17 00:52:32;;;;;;;8.82;4.45;;;;;;;15.76;73.03;99950.69;1088252;54;20014;-82
2021/09/17 00:53:34;;;;;;;5.88;4.25;;;;;;;15.78;73.02;99950.50;1088109;54;20030;-82
2021/09/17 00:54:38;;;;;;;7.60;4.53;;;;;;;15.68;73.04;99956.97;1088250;54;20817;-81
2021/09/17 00:55:45;;;;;;;5.38;4.30;;;;;;;15.62;73.34;99952.31;1088116;54;20758;-81
2021/09/17 00:56:47;;;;;;;6.15;4.25;;;;;;;15.65;73.19;99943.88;1088083;54;20034;-82
2021/09/17 00:57:51;;;;;;;9.32;4.40;;;;;;;15.58;73.50;99949.13;1088293;54;20042;-82
2021/09/17 00:58:58;;;;;;;6.47;4.22;;;;;;;15.56;73.50;99945.78;1087957;54;20772;-81
2021/09/17 00:59:59;;;;;;;6.43;4.13;;;;;;;15.57;73.78;99946.63;1090449;39;20626;-81
2021/09/17 01:01:09;;;;;;;8.82;5.28;;;;;;;15.54;73.92;99949.69;1088253;54;20035;-81
2021/09/17 01:02:11;;;;;;;7.28;3.78;;;;;;;15.54;74.07;99947.00;1088209;54;20094;-81
2021/09/17 01:03:22;;;;;;;5.65;3.80;;;;;;;15.56;74.06;99944.97;1088171;54;20038;-82
2021/09/17 01:04:23;;;;;;;5.55;3.97;;;;;;;15.51;74.00;99945.50;1088044;54;20034;-81
2021/09/17 01:05:29;;;;;;;6.95;4.18;;;;;;;15.55;74.18;99954.06;1088139;54;20041;-81
2021/09/17 01:06:30;;;;;;;5.15;3.50;;;;;;;15.53;74.19;99945.31;1088024;54;20034;-82
2021/09/17 01:07:34;;;;;;;6.97;4.05;;;;;;;15.54;74.04;99949.69;1088166;54;20100;-81
2021/09/17 01:08:38;;;;;;;6.85;4.28;;;;;;;15.49;74.52;99949.41;1088100;54;20042;-83
2021/09/17 01:09:43;;;;;;;8.43;3.92;;;;;;;15.48;74.63;99950.41;1088016;54;20042;-81
2021/09/17 01:10:48;;;;;;;5.13;3.75;;;;;;;15.47;74.66;99946.84;1088174;54;20042;-82
2021/09/17 01:12:56;;;;;;;6.25;4.60;;;;;;;15.46;74.72;99938.97;1087941;54;20740;-79
2021/09/17 01:13:58;;;;;;;6.55;4.40;;;;;;;15.46;74.74;99947.06;1087604;54;20062;-80
2021/09/17 01:15:03;;;;;;;6.43;4.53;;;;;;;15.48;74.63;99945.03;1087986;54;20034;-80
2021/09/17 01:16:05;;;;;;;7.45;4.03;;;;;;;15.44;74.45;99950.75;1087925;54;20050;-80
2021/09/17 01:17:09;;;;;;;6.68;3.83;;;;;;;15.40;74.64;99952.13;1087906;54;20019;-80
2021/09/17 01:18:11;;;;;;;6.57;4.70;;;;;;;15.31;74.94;99953.19;1087717;54;20042;-80
2021/09/17 01:19:15;;;;;;;5.97;4.80;;;;;;;15.33;75.26;99951.16;1087981;54;20026;-80
2021/09/17 01:20:22;;;;;;;8.35;4.85;;;;;;;15.30;75.39;99951.53;1088045;54;20045;-80
2021/09/17 01:21:26;;;;;;;7.13;5.00;;;;;;;15.30;75.20;99951.53;1090287;46;20054;-81
2021/09/17 01:22:31;;;;;;;6.63;4.13;;;;;;;15.33;75.17;99953.03;1088929;46;20041;-80
2021/09/17 01:23:35;;;;;;;7.30;4.13;;;;;;;15.35;75.10;99941.06;1087788;54;20034;-79
2021/09/17 01:24:38;;;;;;;7.03;4.25;;;;;;;15.32;75.10;99949.47;1087996;54;20038;-80
2021/09/17 01:25:43;;;;;;;7.75;4.13;;;;;;;15.35;75.00;99946.44;1088618;46;20052;-81
2021/09/17 01:26:44;;;;;;;6.07;4.20;;;;;;;15.32;75.08;99941.41;1087912;54;20031;-80
2021/09/17 01:27:51;;;;;;;7.05;4.65;;;;;;;15.32;75.15;99941.41;1089699;39;20539;-80
2021/09/17 01:28:52;;;;;;;6.05;4.82;;;;;;;15.29;75.10;99934.53;1089364;46;20046;-81
2021/09/17 01:29:57;;;;;;;5.82;4.80;;;;;;;15.34;75.23;99942.06;1088412;39;20519;-80
2021/09/17 01:30:59;;;;;;;6.65;4.00;;;;;;;15.32;75.07;99957.56;1088190;46;20038;-81
2021/09/17 01:32:04;;;;;;;5.90;4.25;;;;;;;15.39;74.90;99945.09;1087911;54;20035;-80
2021/09/17 01:33:05;;;;;;;6.72;3.88;;;;;;;15.42;74.89;99938.50;1088025;54;20042;-81
2021/09/17 01:34:11;;;;;;;5.80;3.58;;;;;;;15.45;74.75;99938.13;1087919;54;20041;-80
2021/09/17 01:35:14;;;;;;;5.97;3.30;;;;;;;15.46;74.59;99941.66;1088002;54;20031;-80
2021/09/17 01:36:19;;;;;;;6.80;3.55;;;;;;;15.46;74.69;99942.47;1087995;54;20030;-80
2021/09/17 01:37:23;;;;;;;6.43;4.45;;;;;;;15.44;74.64;99937.28;1087957;54;20034;-81
2021/09/17 01:38:28;;;;;;;5.55;3.90;;;;;;;15.37;74.96;99933.66;1088033;54;20038;-80
2021/09/17 01:39:31;;;;;;;4.85;3.65;;;;;;;15.32;75.21;99936.00;1087967;54;20019;-80
2021/09/17 01:40:35;;;;;;;6.53;4.20;;;;;;;15.32;75.48;99940.56;1088007;54;20038;-80
2021/09/17 01:41:36;;;;;;;6.03;4.35;;;;;;;15.28;75.50;99932.03;1087865;54;20038;-80
2021/09/17 01:42:41;;;;;;;7.75;4.47;;;;;;;15.27;75.71;99946.50;1087958;54;20034;-79
2021/09/17 01:43:43;;;;;;;5.80;4.38;;;;;;;15.32;75.33;99935.19;1087933;54;20077;-81
2021/09/17 01:44:47;;;;;;;5.80;4.25;;;;;;;15.32;75.31;99933.31;1088020;54;20036;-80
2021/09/17 01:45:49;;;;;;;5.72;4.40;;;;;;;15.29;75.32;99931.00;1087748;54;20022;-81
2021/09/17 01:46:53;;;;;;;6.05;4.25;;;;;;;15.28;75.80;99932.03;1088023;54;20042;-80
2021/09/17 01:47:55;;;;;;;5.28;4.43;;;;;;;15.33;75.52;99928.78;1087927;54;20113;-81
2021/09/17 01:48:59;;;;;;;7.20;4.57;;;;;;;15.37;75.56;99925.56;1088793;46;20082;-79
2021/09/17 01:50:00;;;;;;;8.50;4.18;;;;;;;15.36;75.39;99933.81;1088068;54;20042;-81
2021/09/17 01:51:04;;;;;;;6.43;4.30;;;;;;;15.37;75.52;99922.88;1087911;54;20040;-81
2021/09/17 01:52:07;;;;;;;6.63;4.75;;;;;;;15.34;75.38;99920.53;1089660;39;20543;-81
2021/09/17 01:53:14;;;;;;;4.60;3.50;;;;;;;15.40;75.34;99916.28;1087640;54;20042;-80
2021/09/17 01:54:15;;;;;;;6.35;4.63;;;;;;;15.30;75.46;99921.91;1087651;54;20061;-80
2021/09/17 01:55:23;;;;;;;6.10;4.90;;;;;;;15.34;75.27;99919.69;1087941;54;20030;-80
2021/09/17 01:56:25;;;;;;;7.68;4.65;;;;;;;15.40;75.20;99916.28;1088005;54;20031;-80
2021/09/17 01:57:29;;;;;;;6.88;4.88;;;;;;;15.42;75.07;99923.16;1087958;54;20030;-80
2021/09/17 01:58:31;;;;;;;5.97;4.40;;;;;;;15.48;74.83;99918.09;1087982;54;20015;-81
2021/09/17 01:59:35;;;;;;;6.68;4.68;;;;;;;15.46;74.81;99912.84;1087904;54;20037;-80
2021/09/17 02:00:37;;;;;;;7.00;4.90;;;;;;;15.51;74.86;99915.88;1087912;54;20049;-81
2021/09/17 02:01:41;;;;;;;7.10;5.00;;;;;;;15.53;74.72;99913.84;1087756;54;20074;-80
2021/09/17 02:02:43;;;;;;;5.90;4.57;;;;;;;15.52;74.82;99914.84;1087714;54;20054;-79
2021/09/17 02:03:47;;;;;;;6.13;4.78;;;;;;;15.50;74.75;99916.03;1087970;54;20034;-80
2021/09/17 02:04:48;;;;;;;6.07;4.88;;;;;;;15.48;74.88;99915.38;1087976;54;20031;-80
2021/09/17 02:05:53;;;;;;;7.53;4.75;;;;;;;15.43;74.96;99919.44;1087924;54;20623;-80
2021/09/17 02:06:54;;;;;;;8.40;4.75;;;;;;;15.48;74.86;99910.00;1087613;54;20065;-81
2021/09/17 02:07:59;;;;;;;7.75;5.38;;;;;;;15.38;75.14;99911.09;1087991;54;20030;-80
2021/09/17 02:09:06;;;;;;;6.50;5.03;;;;;;;15.30;75.77;99911.16;1087915;54;20764;-80
2021/09/17 02:10:10;;;;;;;7.53;4.45;;;;;;;15.29;75.54;99912.16;1087456;54;20041;-80
2021/09/17 02:11:14;;;;;;;5.97;4.20;;;;;;;15.36;75.43;99905.03;1087716;54;20014;-80
2021/09/17 02:12:16;;;;;;;5.07;3.50;;;;;;;15.41;75.30;99912.56;1087624;54;20034;-81
2021/09/17 02:13:21;;;;;;;6.68;3.50;;;;;;;15.49;74.71;99907.13;1087126;54;20038;-80
2021/09/17 02:14:22;;;;;;;5.50;3.80;;;;;;;15.39;74.99;99906.53;1087759;54;20065;-80
2021/09/17 02:15:26;;;;;;;6.43;3.97;;;;;;;15.33;75.33;99912.63;1088096;46;20019;-80
2021/09/17 02:16:28;;;;;;;5.93;4.13;;;;;;;15.29;75.50;99902.22;1087847;54;20030;-81
2021/09/17 02:17:32;;;;;;;8.43;4.43;;;;;;;15.31;75.22;99910.09;1089885;39;20531;-81
2021/09/17 02:18:34;;;;;;;6.13;4.03;;;;;;;15.26;75.66;99905.25;1087913;54;20862;-81
2021/09/17 02:19:39;;;;;;;5.07;3.97;;;;;;;15.37;75.22;99913.94;1087832;54;20034;-79
2021/09/17 02:20:40;;;;;;;6.32;3.67;;;;;;;15.27;75.36;99908.78;1087882;54;20061;-80
2021/09/17 02:21:49;;;;;;;6.63;4.07;;;;;;;15.35;75.06;99902.53;1087916;54;20018;-80
2021/09/17 02:22:50;;;;;;;5.97;4.07;;;;;;;15.41;74.88;99904.50;1088011;54;20047;-80
2021/09/17 02:23:54;;;;;;;5.45;3.58;;;;;;;15.49;74.51;99903.59;1088055;54;20074;-81
2021/09/17 02:24:59;;;;;;;5.47;4.18;;;;;;;15.51;74.30;99907.78;1087968;54;20034;-80
2021/09/17 02:26:03;;;;;;;5.57;3.72;;;;;;;15.50;74.52;99907.94;1088464;39;20547;-80
2021/09/17 02:27:05;;;;;;;7.47;3.80;;;;;;;15.45;74.51;99905.78;1087992;54;20037;-79
2021/09/17 02:28:09;;;;;;;6.28;4.03;;;;;;;15.44;74.63;99906.84;1087882;47;21116;-80
2021/09/17 02:29:11;;;;;;;5.97;4.10;;;;;;;15.36;74.71;99904.16;1087746;54;20038;-81
2021/09/17 02:30:16;;;;;;;6.72;4.80;;;;;;;15.29;74.99;99904.91;1088427;39;20759;-81
2021/09/17 02:31:19;;;;;;;7.10;4.25;;;;;;;15.29;75.04;99909.47;1087756;54;20030;-80
2021/09/17 02:32:23;;;;;;;7.25;4.50;;;;;;;15.31;74.74;99910.09;1087685;54;20078;-81
2021/09/17 02:33:24;;;;;;;6.07;4.10;;;;;;;15.39;74.49;99907.38;1087956;54;20023;-81
2021/09/17 02:34:28;;;;;;;6.15;4.10;;;;;;;15.49;74.47;99901.72;1087970;54;20038;-81
2021/09/17 02:35:30;;;;;;;5.25;3.67;;;;;;;15.52;74.33;99901.38;1088024;54;20026;-80
2021/09/17 02:36:34;;;;;;;5.03;3.58;;;;;;;15.52;74.31;99911.31;1088036;54;20030;-79
2021/09/17 02:37:38;;;;;;;6.07;3.63;;;;;;;15.52;73.88;99908.59;1087896;54;20777;-80
2021/09/17 02:38:42;;;;;;;5.70;3.85;;;;;;;15.54;74.18;99911.97;1087965;54;20042;-80
2021/09/17 02:39:44;;;;;;;6.03;3.63;;;;;;;15.59;74.16;99904.16;1087915;54;20057;-81
2021/09/17 02:40:52;;;;;;;5.00;3.80;;;;;;;15.39;74.36;99907.38;1087824;54;20065;-80
2021/09/17 02:41:53;;;;;;;7.38;4.60;;;;;;;15.21;75.21;99904.13;1087865;54;20039;-81
2021/09/17 02:42:58;;;;;;;7.55;4.78;;;;;;;15.18;75.37;99902.63;1087794;54;20061;-80
2021/09/17 02:44:01;;;;;;;7.93;4.88;;;;;;;15.14;75.39;99901.31;1087966;54;20038;-81
2021/09/17 02:45:06;;;;;;;6.43;4.30;;;;;;;15.25;74.88;99910.81;1088024;54;20022;-80
2021/09/17 02:46:08;;;;;;;5.60;4.35;;;;;;;15.27;75.05;99903.41;1087974;54;20038;-80
2021/09/17 02:47:12;;;;;;;5.72;4.10;;;;;;;15.30;74.83;99905.75;1087893;54;20140;-80
2021/09/17 02:48:13;;;;;;;7.57;4.68;;;;;;;15.24;74.99;99904.63;1087906;54;20037;-81
2021/09/17 02:49:18;;;;;;;5.80;4.18;;;;;;;15.29;74.84;99901.38;1087906;54;20054;-82
2021/09/17 02:50:19;;;;;;;7.15;4.43;;;;;;;15.17;74.92;99905.50;1087934;54;20049;-78
2021/09/17 02:51:24;;;;;;;8.55;4.75;;;;;;;15.05;75.58;99899.69;1087845;54;20038;-78
2021/09/17 02:52:25;;;;;;;6.63;4.45;;;;;;;15.01;75.71;99907.28;1087650;54;20035;-78
2021/09/17 02:53:29;;;;;;;7.28;4.93;;;;;;;14.98;76.00;99902.25;1087780;54;20035;-80
2021/09/17 02:54:31;;;;;;;6.13;4.30;;;;;;;15.07;75.50;99898.50;1087924;47;20872;-79
2021/09/17 02:55:36;;;;;;;7.15;4.28;;;;;;;15.13;75.29;99903.16;1087806;54;20042;-79
2021/09/17 02:56:40;;;;;;;5.93;4.22;;;;;;;15.16;75.16;99903.81;1087888;54;20053;-79
2021/09/17 02:57:44;;;;;;;5.93;4.47;;;;;;;15.16;75.03;99906.50;1087906;54;20632;-79
2021/09/17 02:58:45;;;;;;;5.15;3.65;;;;;;;15.13;74.88;99903.16;1087930;54;20030;-79
2021/09/17 02:59:50;;;;;;;5.63;4.30;;;;;;;15.17;75.00;99911.72;1087857;54;20050;-79
2021/09/17 03:00:51;;;;;;;6.60;4.40;;;;;;;15.19;75.01;99907.00;1087826;54;20050;-80
2021/09/17 03:01:55;;;;;;;6.43;4.55;;;;;;;15.14;74.97;99904.00;1087891;54;20030;-79
2021/09/17 03:02:57;;;;;;;7.63;4.32;;;;;;;15.22;75.15;99906.66;1087924;54;20034;-78
2021/09/17 03:04:02;;;;;;;5.57;3.90;;;;;;;15.29;74.84;99912.16;1088742;46;20666;-80
2021/09/17 03:05:04;;;;;;;4.90;3.60;;;;;;;15.29;74.72;99901.38;1087915;47;20965;-80
2021/09/17 03:06:08;;;;;;;5.28;3.40;;;;;;;15.33;74.44;99908.06;1087887;54;20034;-79
2021/09/17 03:07:10;;;;;;;6.30;3.70;;;;;;;15.36;74.69;99902.34;1090650;46;20668;-80
2021/09/17 03:08:14;;;;;;;4.95;3.40;;;;;;;15.35;74.60;99906.03;1087985;54;20650;-78
2021/09/17 03:09:16;;;;;;;5.70;3.95;;;;;;;15.35;74.51;99900.66;1087831;54;20042;-79
2021/09/17 03:10:21;;;;;;;5.65;3.47;;;;;;;15.31;74.71;99907.41;1087865;47;20858;-79
2021/09/17 03:11:24;;;;;;;6.28;4.80;;;;;;;15.23;74.98;99902.09;1087908;54;20040;-78
2021/09/17 03:12:31;;;;;;;6.80;4.40;;;;;;;15.25;74.93;99910.81;1088304;39;20785;-78
2021/09/17 03:13:33;;;;;;;4.85;3.60;;;;;;;15.28;74.77;99903.22;1087658;54;20031;-78
2021/09/17 03:14:37;;;;;;;5.60;3.80;;;;;;;15.35;74.63;99907.91;1087961;54;20015;-78
2021/09/17 03:15:47;;;;;;;5.38;3.92;;;;;;;15.32;74.75;99903.69;1088148;54;20034;-80
2021/09/17 03:16:49;;;;;;;4.85;3.40;;;;;;;15.32;74.79;99908.25;1092720;39;20244;-79
2021/09/17 03:17:54;;;;;;;5.68;3.42;;;;;;;15.39;74.51;99910.06;1088017;54;20031;-80
2021/09/17 03:18:56;;;;;;;5.15;3.28;;;;;;;15.39;74.40;99902.00;1088683;47;20027;-79
2021/09/17 03:20:00;;;;;;;5.20;3.50;;;;;;;15.43;74.50;99908.66;1088128;54;20041;-79
2021/09/17 03:21:02;;;;;;;5.00;3.50;;;;;;;15.49;74.35;99909.00;1089102;47;20042;-79
2021/09/17 03:22:15;;;;;;;5.50;3.80;;;;;;;15.43;74.04;99905.16;1088951;47;20058;-79
2021/09/17 03:23:17;;;;;;;5.47;3.50;;;;;;;15.43;74.08;99905.97;1088486;54;20101;-79
2021/09/17 03:24:31;;;;;;;5.00;3.63;;;;;;;15.38;74.23;99897.63;1096810;46;20041;-79
2021/09/17 03:25:33;;;;;;;5.72;3.50;;;;;;;15.39;74.12;99902.00;1088536;54;20675;-79
2021/09/17 03:26:38;;;;;;;6.13;3.60;;;;;;;15.41;74.29;99905.31;1088596;54;20034;-78
2021/09/17 03:27:43;;;;;;;5.22;3.70;;;;;;;15.43;74.03;99900.59;1088514;54;20034;-80
2021/09/17 03:28:47;;;;;;;4.63;3.60;;;;;;;15.44;74.11;99904.97;1088428;54;20038;-78
2021/09/17 03:29:48;;;;;;;6.05;3.97;;;;;;;15.44;74.30;99902.28;1088333;54;20065;-80
2021/09/17 03:30:54;;;;;;;5.13;3.60;;;;;;;15.46;73.97;99895.88;1088432;54;20014;-79
2021/09/17 03:31:56;;;;;;;6.95;3.63;;;;;;;15.46;74.29;99894.00;1088377;54;20037;-79
2021/09/17 03:33:02;;;;;;;5.68;3.50;;;;;;;15.44;74.00;99894.19;1088352;54;21042;-79
2021/09/17 03:34:03;;;;;;;6.60;4.05;;;;;;;15.34;74.28;99895.47;1088363;54;20038;-80
2021/09/17 03:35:09;;;;;;;4.90;3.58;;;;;;;15.33;74.73;99896.47;1088278;54;20038;-79
2021/09/17 03:36:13;;;;;;;5.53;4.13;;;;;;;15.30;74.97;99886.91;1088459;54;20015;-80
2021/09/17 03:37:15;;;;;;;5.65;3.42;;;;;;;15.34;74.53;99888.22;1088363;54;20034;-79
2021/09/17 03:38:20;;;;;;;6.25;3.55;;;;;;;15.35;74.77;99897.97;1088290;54;20034;-80
2021/09/17 03:39:22;;;;;;;5.50;3.65;;;;;;;15.25;74.68;99884.75;1088349;54;20027;-79
2021/09/17 03:40:26;;;;;;;5.93;4.43;;;;;;;15.23;75.25;99891.31;1088467;54;20078;-79
2021/09/17 03:41:28;;;;;;;6.13;3.80;;;;;;;15.15;75.56;99894.06;1088588;54;20038;-80
2021/09/17 03:42:46;;;;;;;5.57;4.03;;;;;;;15.17;75.46;99892.03;1088548;54;20086;-80
2021/09/17 03:43:48;;;;;;;5.47;4.10;;;;;;;15.13;75.35;99891.56;1088245;54;20019;-80
2021/09/17 03:44:52;;;;;;;6.13;4.18;;;;;;;15.13;75.52;99891.56;1088184;54;20083;-80
2021/09/17 03:45:54;;;;;;;5.97;4.40;;;;;;;15.12;75.65;99896.09;1088214;54;20022;-79
2021/09/17 03:46:59;;;;;;;7.05;4.65;;;;;;;15.09;75.54;99899.16;1088058;54;20140;-80
2021/09/17 03:48:03;;;;;;;7.05;4.43;;;;;;;15.05;75.76;99899.69;1088129;54;20026;-80
2021/09/17 03:49:08;;;;;;;7.00;4.75;;;;;;;15.03;76.04;99905.22;1088096;54;20742;-80
2021/09/17 03:50:10;;;;;;;8.38;5.63;;;;;;;15.01;76.04;99901.91;1088160;54;20045;-80
2021/09/17 03:51:14;;;;;;;7.53;5.20;;;;;;;14.93;76.07;99902.78;1088078;54;20030;-80
2021/09/17 03:52:15;;;;;;;14.52;6.07;;;;;;;14.88;76.49;99899.75;1088087;54;20038;-79
2021/09/17 03:53:20;;;;;;;9.25;5.30;;;;;;;14.89;76.52;99906.00;1088009;54;20038;-80
2021/09/17 03:54:24;;;;;;;8.98;5.55;;;;;;;14.84;76.47;99902.97;1088178;54;20058;-82
2021/09/17 03:55:30;;;;;;;7.63;5.53;;;;;;;14.86;76.69;99898.25;1088221;54;20046;-79
2021/09/17 03:56:32;;;;;;;6.80;5.32;;;;;;;14.85;76.52;99891.22;1087976;54;20062;-82
2021/09/17 03:57:36;;;;;;;7.20;5.22;;;;;;;14.79;76.48;99893.59;1091325;46;20049;-81
2021/09/17 03:58:40;;;;;;;7.20;5.25;;;;;;;14.77;77.03;99898.31;1088220;54;20042;-79
2021/09/17 03:59:45;;;;;;;10.77;6.03;;;;;;;14.72;76.80;99897.16;1088363;54;20082;-79
2021/09/17 04:00:47;;;;;;;7.50;5.60;;;;;;;14.78;76.86;99897.31;1088198;54;20057;-80
2021/09/17 04:02:00;;;;;;;8.02;5.78;;;;;;;14.73;77.02;99899.69;1088241;54;20035;-80
2021/09/17 04:03:03;;;;;;;6.40;4.80;;;;;;;14.73;76.90;99899.69;1088386;54;20078;-79
2021/09/17 04:04:08;;;;;;;8.38;5.40;;;;;;;14.77;76.77;99898.31;1088118;54;20083;-80
2021/09/17 04:05:10;;;;;;;7.32;5.22;;;;;;;14.86;76.57;99895.56;1088554;54;20027;-81
2021/09/17 04:06:17;;;;;;;8.90;5.00;;;;;;;14.92;76.43;99893.03;1088150;54;20022;-81
2021/09/17 04:07:19;;;;;;;6.57;4.70;;;;;;;14.95;76.27;99897.22;1088249;54;20038;-80
2021/09/17 04:08:24;;;;;;;6.85;4.45;;;;;;;14.95;76.33;99891.81;1089291;46;20014;-80
2021/09/17 04:09:26;;;;;;;8.00;5.70;;;;;;;14.68;76.88;99899.38;1088050;54;20026;-80
2021/09/17 04:10:31;;;;;;;8.55;6.32;;;;;;;14.56;77.41;99890.81;1088135;54;20018;-80
2021/09/17 04:11:32;;;;;;;9.98;6.78;;;;;;;14.52;77.51;99894.84;1088072;54;20553;-79
2021/09/17 04:12:49;;;;;;;7.75;6.57;;;;;;;14.46;78.14;99895.56;1088045;54;20039;-80
2021/09/17 04:13:56;;;;;;;9.30;6.30;;;;;;;14.41;78.25;99896.09;1088090;54;20568;-79
2021/09/17 04:14:58;;;;;;;13.77;6.80;;;;;;;14.35;78.30;99896.78;1088097;54;20619;-81
2021/09/17 04:16:07;;;;;;;8.55;6.38;;;;;;;14.35;78.28;99900.31;1088293;54;20027;-79
2021/09/17 04:17:08;;;;;;;8.52;6.40;;;;;;;14.37;78.30;99894.75;1088195;54;20045;-80
2021/09/17 04:18:25;;;;;;;8.07;6.53;;;;;;;14.35;78.89;99902.16;1088027;54;20038;-80
2021/09/17 04:19:28;;;;;;;8.23;6.25;;;;;;;14.35;78.67;99896.78;1088084;54;20034;-80
2021/09/17 04:20:53;;;;;;;7.65;6.57;;;;;;;14.30;78.98;99901.84;1088233;54;20109;-80
2021/09/17 04:22:00;;;;;;;10.50;7.15;;;;;;;14.25;78.99;99893.47;1088254;54;20046;-81
2021/09/17 04:23:12;;;;;;;9.13;6.78;;;;;;;14.23;79.37;99890.09;1088350;54;20639;-81
2021/09/17 04:24:21;;;;;;;10.00;6.40;;;;;;;14.28;79.18;99890.41;1088167;54;20062;-81
2021/09/17 04:25:26;;;;;;;8.98;6.72;;;;;;;14.29;78.99;99897.47;1088246;54;20092;-81
2021/09/17 04:26:28;;;;;;;9.50;6.93;;;;;;;14.31;78.95;99887.38;1088231;54;20042;-81
2021/09/17 04:27:33;;;;;;;8.10;6.53;;;;;;;14.30;78.58;99897.31;1088238;54;20034;-81
2021/09/17 04:28:35;;;;;;;8.63;6.72;;;;;;;14.32;78.59;99899.81;1092184;39;20568;-80
2021/09/17 04:30:08;;;;;;;10.35;6.90;;;;;;;14.27;79.31;99899.47;1088067;54;20040;-79
2021/09/17 04:31:10;;;;;;;9.38;7.10;;;;;;;14.24;79.24;99902.53;1088094;54;20091;-78
2021/09/17 04:32:14;;;;;;;8.23;6.93;;;;;;;14.25;79.22;99896.16;1088247;54;20026;-79
2021/09/17 04:33:16;;;;;;;10.10;6.55;;;;;;;14.27;79.27;99896.78;1088013;54;20043;-80
2021/09/17 04:34:39;;;;;;;9.25;7.22;;;;;;;14.26;79.59;99892.44;1088229;54;20046;-80
2021/09/17 04:35:41;;;;;;;7.68;5.60;;;;;;;14.34;78.85;99903.19;1088306;54;20059;-81
2021/09/17 04:36:51;;;;;;;7.05;5.95;;;;;;;14.42;78.79;99895.06;1088380;54;20015;-81
2021/09/17 04:37:56;;;;;;;7.45;5.75;;;;;;;14.44;78.55;99893.06;1088291;54;20612;-80
2021/09/17 04:39:12;;;;;;;8.10;5.68;;;;;;;14.50;78.36;99905.81;1088349;54;20062;-80
2021/09/17 04:40:20;;;;;;;7.18;5.60;;;;;;;14.49;78.06;99900.59;1088310;54;20022;-80
2021/09/17 04:41:22;;;;;;;7.85;5.65;;;;;;;14.44;78.48;99905.66;1088306;54;20022;-79
2021/09/17 04:42:51;;;;;;;9.20;6.70;;;;;;;14.38;78.64;99901.81;1090513;39;20548;-80
2021/09/17 04:43:53;;;;;;;10.57;6.55;;;;;;;14.25;78.94;99904.22;1088193;54;20038;-80
2021/09/17 04:45:10;;;;;;;8.93;7.07;;;;;;;14.17;79.66;99903.19;1088117;54;20049;-79
2021/09/17 04:46:12;;;;;;;9.95;7.05;;;;;;;14.20;79.45;99902.88;1088226;54;20025;-80
2021/09/17 04:47:44;;;;;;;9.23;6.90;;;;;;;14.11;79.58;99909.28;1088037;54;20038;-80
2021/09/17 04:48:46;;;;;;;10.95;7.40;;;;;;;14.02;79.95;99904.91;1087873;54;20026;-81
2021/09/17 04:50:03;;;;;;;12.30;7.65;;;;;;;14.02;79.87;99902.22;1087947;54;20058;-79
2021/09/17 04:51:04;;;;;;;10.10;7.78;;;;;;;14.00;79.99;99912.31;1088023;54;20042;-80
2021/09/17 04:54:19;;;;;;;13.93;8.23;;;;;;;13.86;80.34;99912.00;1088260;54;20592;-81
2021/09/17 04:55:21;;;;;;;11.07;7.60;;;;;;;13.93;80.25;99901.44;1088373;54;20030;-81
2021/09/17 04:56:26;;;;;;;10.82;8.10;;;;;;;13.94;79.94;99908.44;1088113;54;20026;-80
2021/09/17 04:57:28;;;;;;;13.10;7.45;;;;;;;13.93;80.04;99901.44;1088335;54;20039;-82
2021/09/17 04:58:35;;;;;;;10.05;7.13;;;;;;;14.00;79.90;99906.94;1088227;54;20018;-81
2021/09/17 04:59:36;;;;;;;10.65;8.32;;;;;;;13.91;80.03;99900.75;1088302;54;20038;-79
2021/09/17 05:00:44;;;;;;;11.68;8.20;;;;;;;13.92;80.13;99898.88;1088214;54;20722;-81
2021/09/17 05:01:47;;;;;;;10.25;8.43;;;;;;;13.96;80.20;99902.94;1088148;54;20023;-78
2021/09/17 05:02:58;;;;;;;11.77;8.25;;;;;;;13.95;80.00;99903.94;1088332;54;20019;-79
2021/09/17 05:04:00;;;;;;;9.45;6.95;;;;;;;14.04;79.67;99902.91;1088405;54;20019;-80
2021/09/17 05:05:08;;;;;;;9.63;7.20;;;;;;;14.05;79.92;99899.22;1088138;54;20019;-80
2021/09/17 05:06:13;;;;;;;10.73;8.80;;;;;;;13.99;79.90;99902.56;1088195;54;20015;-78